Goodyears Corners, New York
Current Conditions -  °F | °C
As of 12:56 PM on Sunday 25 Jan 2015 (Local Time) from KITH Reporting Station
Light Snow Light Snow  
Wind Chill:   Ceiling: 1800
Heat Index: 19°   Visibility: 4mi
Dew Point: 12°   Wind: 9mph
Humidity: 74%   Direction: 330°NNW
Pressure: 29.86"   Gusts: NA
Location:  42.6734°N, 76.6263°W
Report Text: KITH 251756Z 33008KT 4SM -SN BKN018 OVC025 M07/M11 A2986 RMK AO2 51017 60000 T10721111 11038 21072 P0000 SLP126
Loading
Personal Weather Stations






























Interactive Weather Map New forecast layout! Learn more

10-Day Weather Forecast

Advertisements
Track Severe Weather on mobile